Time;durP1;ratioP1;P1;durP2;ratioP2;P2;SDS_P1;SDS_P2;PMS_P1;PMS_P2;Temp;Humidity;BMP_temperature;BMP_pressure;BME280_temperature;BME280_humidity;BME280_pressure;Samples;Min_cycle;Max_cycle;Signal;HPM_P1;HPM_P2
2022/06/03 00:01:33;;;;;;;40.28;37.00;;;;;;;17.51;100.00;101154.84;5034362;28;20383;-83
2022/06/03 00:04:13;;;;;;;36.92;33.78;;;;;;;17.47;100.00;101154.53;5022917;28;20049;-83
2022/06/03 00:06:52;;;;;;;35.67;32.53;;;;;;;17.40;100.00;101157.34;5025281;28;20099;-83
2022/06/03 00:09:52;;;;;;;41.30;37.90;;;;;;;17.29;100.00;101160.09;5024023;28;20045;-83
2022/06/03 00:12:37;;;;;;;37.58;34.25;;;;;;;17.18;100.00;101154.50;5025771;28;20041;-82
2022/06/03 00:15:15;;;;;;;36.85;33.28;;;;;;;17.25;100.00;101159.75;5032197;28;20390;-84
2022/06/03 00:18:05;;;;;;;37.63;34.50;;;;;;;17.26;100.00;101155.19;5025843;28;20045;-82
2022/06/03 00:20:50;;;;;;;39.20;36.17;;;;;;;17.42;100.00;101148.25;5025415;28;20050;-83
2022/06/03 00:23:51;;;;;;;38.22;35.15;;;;;;;17.38;100.00;101147.91;5032606;28;20060;-82
2022/06/03 00:26:42;;;;;;;38.17;34.95;;;;;;;17.25;100.00;101150.91;5019539;28;20453;-84
2022/06/03 00:29:25;;;;;;;41.45;38.10;;;;;;;17.03;100.00;101151.53;5021128;28;20453;-84
2022/06/03 00:32:17;;;;;;;36.22;33.38;;;;;;;16.57;100.00;101147.88;5025802;28;20045;-82
2022/06/03 00:35:17;;;;;;;40.15;36.90;;;;;;;16.71;100.00;101148.44;4998580;28;20050;-82
2022/06/03 00:37:50;;;;;;;35.83;32.72;;;;;;;17.02;100.00;101141.84;5032798;28;20065;-83
2022/06/03 00:40:37;;;;;;;42.97;38.60;;;;;;;17.20;100.00;101154.28;5025723;28;20042;-83
2022/06/03 00:43:33;;;;;;;44.42;40.63;;;;;;;17.26;100.00;101150.63;5028957;28;20072;-84
2022/06/03 00:46:19;;;;;;;41.00;37.30;;;;;;;16.98;100.00;101148.75;5018700;28;20056;-83
2022/06/03 00:49:02;;;;;;;37.75;34.42;;;;;;;17.06;100.00;101155.59;5022636;28;20462;-83
2022/06/03 00:52:06;;;;;;;39.95;36.72;;;;;;;16.71;100.00;101154.63;5028659;28;20056;-83
2022/06/03 00:55:23;;;;;;;43.45;39.45;;;;;;;16.52;100.00;101153.13;5012154;28;20060;-82
2022/06/03 00:58:18;;;;;;;37.65;34.55;;;;;;;15.88;100.00;101144.94;5034433;28;20053;-84
2022/06/03 01:01:02;;;;;;;44.33;40.53;;;;;;;16.08;100.00;101157.22;5028977;28;20393;-83
2022/06/03 01:03:41;;;;;;;40.70;37.05;;;;;;;16.37;100.00;101161.66;5034139;28;20046;-84
2022/06/03 01:06:20;;;;;;;39.78;36.05;;;;;;;16.63;100.00;101162.22;5024937;28;20056;-85
2022/06/03 01:09:02;;;;;;;39.75;36.25;;;;;;;16.64;100.00;101167.34;5024663;28;20045;-82
2022/06/03 01:11:36;;;;;;;;;;;;;;;16.83;100.00;101156.50;5028230;28;20132;-83
2022/06/03 01:14:15;;;;;;;40.90;37.20;;;;;;;16.44;100.00;101164.22;5037019;28;20004;-82
2022/06/03 01:16:57;;;;;;;37.78;34.65;;;;;;;16.55;100.00;101160.72;5023982;28;20054;-83
2022/06/03 01:19:45;;;;;;;39.85;36.70;;;;;;;16.48;100.00;101162.69;5023876;28;20363;-82
2022/06/03 01:22:39;;;;;;;38.80;35.20;;;;;;;16.30;100.00;101168.16;5023702;28;20053;-83
2022/06/03 01:25:34;;;;;;;36.40;32.97;;;;;;;16.37;100.00;101158.97;5020128;28;20530;-82
2022/06/03 01:28:33;;;;;;;38.15;34.80;;;;;;;16.08;100.00;101162.56;5023899;28;20064;-82
2022/06/03 01:31:22;;;;;;;33.95;30.90;;;;;;;15.72;100.00;101159.00;5024209;28;20057;-84
2022/06/03 01:34:06;;;;;;;36.25;33.05;;;;;;;15.65;100.00;101151.03;5026328;28;20413;-82
2022/06/03 01:36:51;;;;;;;37.88;34.53;;;;;;;15.55;100.00;101156.97;5023930;28;20046;-83
2022/06/03 01:39:46;;;;;;;38.05;34.33;;;;;;;15.94;100.00;101165.44;5031920;28;20042;-83
2022/06/03 01:42:56;;;;;;;35.20;31.88;;;;;;;16.33;100.00;101159.66;5021745;28;20050;-83
2022/06/03 01:45:56;;;;;;;36.03;32.63;;;;;;;16.47;100.00;101153.81;5023444;28;20402;-83
2022/06/03 01:48:56;;;;;;;36.33;32.85;;;;;;;16.47;100.00;101169.09;5003833;28;20058;-83
2022/06/03 01:51:58;;;;;;;34.95;31.85;;;;;;;16.19;100.00;101162.56;5004205;28;20057;-82
2022/06/03 01:55:18;;;;;;;37.33;34.10;;;;;;;16.32;100.00;101168.75;5017415;28;20053;-83
2022/06/03 01:58:29;;;;;;;38.95;35.40;;;;;;;15.77;100.00;101169.84;5043267;28;20045;-83
2022/06/03 02:01:04;;;;;;;35.28;32.00;;;;;;;16.00;100.00;101172.56;5085724;23;20058;-84
2022/06/03 02:04:01;;;;;;;35.88;32.60;;;;;;;15.51;100.00;101179.84;4981056;28;20051;-83
2022/06/03 02:07:02;;;;;;;38.75;35.30;;;;;;;16.06;100.00;101184.22;4978477;28;20046;-81
2022/06/03 02:10:00;;;;;;;34.60;31.75;;;;;;;16.38;100.00;101186.59;4981922;28;20046;-83
2022/06/03 02:13:03;;;;;;;37.92;34.72;;;;;;;16.43;100.00;101210.81;4981353;28;20065;-82
2022/06/03 02:15:53;;;;;;;41.60;37.35;;;;;;;16.49;100.00;101200.00;4982731;28;20054;-82
2022/06/03 02:18:59;;;;;;;45.00;40.92;;;;;;;17.17;100.00;101230.72;4984502;28;20054;-83
2022/06/03 02:22:21;;;;;;;47.28;42.72;;;;;;;16.85;100.00;101216.91;4958419;28;20054;-82
2022/06/03 02:25:10;;;;;;;56.00;49.90;;;;;;;17.05;100.00;101227.25;4902308;29;20488;-83
2022/06/03 02:28:13;;;;;;;56.15;50.15;;;;;;;16.39;100.00;101228.41;4986081;28;20047;-83
2022/06/03 02:31:10;;;;;;;60.28;50.80;;;;;;;16.64;100.00;101230.88;4988210;28;20050;-83
2022/06/03 02:34:03;;;;;;;59.72;50.20;;;;;;;16.26;100.00;101232.94;4986021;28;20050;-83
2022/06/03 02:36:55;;;;;;;59.92;45.88;;;;;;;16.34;100.00;101236.31;4985646;28;20058;-86
2022/06/03 02:39:57;;;;;;;54.38;43.70;;;;;;;16.43;100.00;101232.25;4994856;28;20054;-83
2022/06/03 02:42:56;;;;;;;60.50;43.13;;;;;;;16.09;100.00;101247.25;4956225;28;20054;-83
2022/06/03 02:45:51;;;;;;;177.45;54.33;;;;;;;16.11;100.00;101259.38;4985751;28;20412;-83
2022/06/03 02:48:57;;;;;;;62.90;47.00;;;;;;;16.38;100.00;101267.00;4955809;28;20059;-83
2022/06/03 02:51:46;;;;;;;60.20;49.60;;;;;;;15.84;100.00;101266.16;4971098;28;20047;-84
2022/06/03 02:54:54;;;;;;;63.63;47.88;;;;;;;16.29;100.00;101271.06;4984131;28;20055;-84
2022/06/03 02:57:51;;;;;;;65.28;51.33;;;;;;;16.29;100.00;101271.88;4934021;28;20061;-82
2022/06/03 03:00:31;;;;;;;66.57;49.47;;;;;;;16.05;100.00;101276.38;4982154;28;20046;-84
2022/06/03 03:03:45;;;;;;;66.22;52.55;;;;;;;15.89;100.00;101279.69;4987062;28;20058;-84
2022/06/03 03:06:33;;;;;;;63.15;49.08;;;;;;;15.63;100.00;101278.97;4903177;29;20047;-83
2022/06/03 03:09:20;;;;;;;71.93;58.47;;;;;;;16.40;100.00;101281.81;4927867;29;20139;-83
2022/06/03 03:12:08;;;;;;;52.03;45.95;;;;;;;16.59;100.00;101279.84;4968237;28;20050;-82
2022/06/03 03:15:06;;;;;;;56.00;49.53;;;;;;;16.11;100.00;101288.84;4989585;28;20140;-83
2022/06/03 03:18:06;;;;;;;62.13;50.05;;;;;;;16.72;100.00;101287.66;4987035;28;20046;-84
2022/06/03 03:21:08;;;;;;;63.22;50.88;;;;;;;16.54;100.00;101293.13;4987707;28;20057;-83
2022/06/03 03:24:14;;;;;;;62.45;53.13;;;;;;;16.74;100.00;101298.16;4982007;28;20058;-82
2022/06/03 03:26:54;;;;;;;62.00;53.90;;;;;;;17.02;100.00;101308.22;4988603;28;20058;-83
2022/06/03 03:29:44;;;;;;;73.93;56.90;;;;;;;17.13;100.00;101315.47;4984955;28;20046;-83
2022/06/03 03:32:43;;;;;;;66.30;52.17;;;;;;;17.21;100.00;101310.78;4989146;28;20482;-82
2022/06/03 03:35:38;;;;;;;64.50;52.80;;;;;;;17.32;100.00;101320.69;4983083;28;20050;-82
2022/06/03 03:38:41;;;;;;;64.38;57.47;;;;;;;17.43;100.00;101319.00;4977801;28;20392;-83
2022/06/03 03:41:36;;;;;;;43.85;39.72;;;;;;;17.02;100.00;101321.63;4965481;28;20042;-83
2022/06/03 03:44:43;;;;;;;41.92;38.53;;;;;;;17.33;100.00;101325.81;4986805;28;20054;-84
2022/06/03 03:47:37;;;;;;;41.08;37.30;;;;;;;17.51;100.00;101326.72;4987626;28;20075;-83
2022/06/03 03:50:39;;;;;;;40.55;36.95;;;;;;;17.60;100.00;101327.97;4955497;28;20069;-83
2022/06/03 03:53:54;;;;;;;38.60;35.20;;;;;;;17.70;100.00;101333.56;4962069;28;20061;-84
2022/06/03 03:56:58;;;;;;;40.80;37.40;;;;;;;17.91;100.00;101329.41;4971442;28;20057;-85
2022/06/03 03:59:55;;;;;;;39.85;36.33;;;;;;;18.16;100.00;101339.84;4990769;28;20057;-85
2022/06/03 04:03:01;;;;;;;37.95;34.53;;;;;;;18.41;100.00;101344.84;4983682;28;20055;-84
2022/06/03 04:05:57;;;;;;;38.38;35.10;;;;;;;18.66;100.00;101346.31;4985193;28;20054;-84
2022/06/03 04:09:02;;;;;;;40.78;37.50;;;;;;;19.01;100.00;101348.00;4992550;28;20046;-83
2022/06/03 04:11:52;;;;;;;39.17;35.67;;;;;;;19.14;100.00;101345.75;4990669;28;20060;-84
2022/06/03 04:14:48;;;;;;;41.70;37.88;;;;;;;19.30;100.00;101352.16;4982653;28;20065;-83
2022/06/03 04:17:53;;;;;;;50.05;45.90;;;;;;;19.46;100.00;101361.28;4988319;28;20426;-84
2022/06/03 04:20:50;;;;;;;48.30;44.38;;;;;;;19.50;100.00;101369.66;4980727;28;20050;-83
2022/06/03 04:24:03;;;;;;;147.32;45.28;;;;;;;19.85;100.00;101374.72;4996126;28;20414;-84
2022/06/03 04:26:58;;;;;;;789.83;100.37;;;;;;;20.12;100.00;101369.34;4986776;28;20487;-85
2022/06/03 04:30:12;;;;;;;41.60;38.03;;;;;;;20.36;100.00;101367.16;4987815;28;20050;-84
2022/06/03 04:33:03;;;;;;;44.08;40.28;;;;;;;20.58;100.00;101373.34;4928309;29;20055;-83
2022/06/03 04:36:14;;;;;;;40.47;37.13;;;;;;;20.63;100.00;101377.94;4935791;29;20051;-82
2022/06/03 04:39:28;;;;;;;40.63;37.22;;;;;;;20.77;100.00;101373.75;4970254;28;20050;-84
2022/06/03 04:42:37;;;;;;;42.20;38.80;;;;;;;20.93;100.00;101374.69;4981955;28;20062;-83
2022/06/03 04:45:30;;;;;;;38.08;34.83;;;;;;;21.59;100.00;101378.88;4966851;28;20117;-82
2022/06/03 04:48:48;;;;;;;32.03;29.45;;;;;;;22.38;100.00;101377.78;4993734;28;20050;-84
2022/06/03 04:51:57;;;;;;;31.55;28.80;;;;;;;23.78;100.00;101380.84;4964611;28;20062;-84
2022/06/03 04:55:17;;;;;;;30.67;28.50;;;;;;;23.66;100.00;101383.88;4977220;28;20043;-85
2022/06/03 04:58:13;;;;;;;30.55;28.23;;;;;;;22.77;100.00;101383.47;4920757;29;20131;-89
2022/06/03 05:01:23;;;;;;;30.63;28.40;;;;;;;22.31;100.00;101391.56;4957591;28;20087;-87
2022/06/03 05:04:36;;;;;;;32.85;30.42;;;;;;;22.29;100.00;101396.44;4992772;28;20061;-89
2022/06/03 05:07:30;;;;;;;;;;;;;;;22.34;100.00;101390.22;4968951;28;20050;-89
2022/06/03 05:10:45;;;;;;;31.83;29.42;;;;;;;22.05;100.00;101387.16;5001996;28;19930;-89
2022/06/03 05:13:47;;;;;;;33.97;31.73;;;;;;;23.11;100.00;101388.34;4986333;28;20141;-86
2022/06/03 05:16:52;;;;;;;37.10;34.30;;;;;;;22.57;100.00;101399.72;4991850;28;20050;-88
2022/06/03 05:19:59;;;;;;;30.70;28.55;;;;;;;22.48;100.00;101390.50;4976749;28;20057;-87
2022/06/03 05:22:50;;;;;;;31.38;28.95;;;;;;;22.36;100.00;101385.34;4997089;28;20122;-86
2022/06/03 05:25:54;;;;;;;33.30;31.10;;;;;;;22.71;100.00;101383.75;5000803;28;20038;-87
2022/06/03 05:28:45;;;;;;;29.70;27.80;;;;;;;22.84;100.00;101386.75;4991778;28;20455;-88
2022/06/03 05:31:52;;;;;;;30.88;28.63;;;;;;;23.01;100.00;101391.06;4987156;28;20051;-89
2022/06/03 05:35:06;;;;;;;30.50;28.25;;;;;;;22.80;100.00;101393.78;4992489;28;20054;-88
2022/06/03 05:38:05;;;;;;;32.15;29.98;;;;;;;22.84;100.00;101388.63;4998918;28;20050;-91
2022/06/03 05:40:55;;;;;;;32.67;30.52;;;;;;;22.83;100.00;101398.63;4992280;28;20483;-88
2022/06/03 05:43:39;;;;;;;32.95;30.80;;;;;;;23.46;100.00;101390.16;4989198;28;20050;-91
2022/06/03 05:46:19;;;;;;;32.22;30.33;;;;;;;23.08;100.00;101389.69;4989685;28;20059;-90
2022/06/03 05:49:06;;;;;;;30.10;27.85;;;;;;;23.32;100.00;101395.34;4997389;28;20054;-89
2022/06/03 05:52:03;;;;;;;31.50;29.15;;;;;;;23.69;100.00;101388.78;4996961;28;20045;-89
2022/06/03 05:54:42;;;;;;;32.35;30.42;;;;;;;23.58;100.00;101389.84;4997649;28;20081;-90
2022/06/03 05:57:28;;;;;;;36.47;34.33;;;;;;;23.86;100.00;101393.81;4992297;28;20489;-89
2022/06/03 06:00:26;;;;;;;34.22;31.67;;;;;;;23.55;100.00;101388.50;4989244;28;20420;-86
2022/06/03 06:03:17;;;;;;;33.67;31.52;;;;;;;23.95;100.00;101388.63;4994836;28;20058;-90
2022/06/03 06:05:52;;;;;;;33.88;32.00;;;;;;;24.30;100.00;101401.19;4994705;28;20483;-87
2022/06/03 06:08:40;;;;;;;33.15;31.15;;;;;;;23.65;100.00;101393.06;4989236;28;20061;-88
2022/06/03 06:11:23;;;;;;;30.55;28.38;;;;;;;23.69;100.00;101396.91;4986890;28;20077;-88
2022/06/03 06:14:24;;;;;;;31.85;29.67;;;;;;;23.92;100.00;101402.75;4982206;28;20093;-88
2022/06/03 06:16:57;;;;;;;33.55;31.60;;;;;;;23.75;100.00;101395.78;4990459;28;20046;-86
2022/06/03 06:19:40;;;;;;;34.30;31.92;;;;;;;24.12;100.00;101391.81;5003286;28;20046;-87
2022/06/03 06:22:26;;;;;;;36.40;34.03;;;;;;;24.30;100.00;101393.06;4992481;28;20058;-87
2022/06/03 06:25:17;;;;;;;35.55;33.25;;;;;;;23.99;100.00;101401.38;4988638;28;20064;-87
2022/06/03 06:28:20;;;;;;;37.38;34.75;;;;;;;24.21;100.00;101397.44;4987172;28;20056;-87
2022/06/03 06:31:33;;;;;;;37.30;34.38;;;;;;;24.58;100.00;101394.22;4953061;28;20065;-89
2022/06/03 06:34:31;;;;;;;33.38;31.17;;;;;;;24.86;100.00;101394.53;4994836;28;20543;-89
2022/06/03 06:37:20;;;;;;;32.38;30.15;;;;;;;24.91;100.00;101398.00;4993359;28;20066;-89
2022/06/03 06:40:03;;;;;;;32.22;30.17;;;;;;;24.66;100.00;101401.78;4989900;28;20070;-88
2022/06/03 06:45:40;;;;;;;29.02;27.20;;;;;;;24.75;100.00;101409.28;4988244;28;20059;-89
2022/06/03 06:48:19;;;;;;;28.80;26.58;;;;;;;25.00;100.00;101425.38;4985663;28;20061;-88
2022/06/03 06:50:56;;;;;;;28.60;26.75;;;;;;;25.12;100.00;101416.84;4990182;28;20054;-88
2022/06/03 06:53:39;;;;;;;28.52;26.80;;;;;;;25.01;100.00;101420.75;5002127;28;20053;-90
2022/06/03 06:56:18;;;;;;;30.42;28.45;;;;;;;25.19;100.00;101413.81;4995488;28;20133;-87
2022/06/03 06:58:56;;;;;;;29.45;27.10;;;;;;;25.41;100.00;101410.59;4989886;28;20380;-86
2022/06/03 07:01:39;;;;;;;27.90;25.90;;;;;;;25.27;100.00;101405.84;4988730;28;20401;-88
2022/06/03 07:04:15;;;;;;;28.60;26.70;;;;;;;25.07;100.00;101400.59;4996311;28;20074;-90
2022/06/03 07:06:44;;;;;;;29.40;27.30;;;;;;;25.17;100.00;101407.84;4991250;28;20046;-87
2022/06/03 07:09:42;;;;;;;29.55;27.30;;;;;;;25.28;100.00;101401.22;5004290;28;20045;-90
2022/06/03 07:12:19;;;;;;;30.23;28.38;;;;;;;25.22;100.00;101405.91;4988186;28;20060;-88
2022/06/03 07:15:10;;;;;;;28.80;26.75;;;;;;;25.33;100.00;101399.25;4993567;28;20133;-88
2022/06/03 07:20:53;;;;;;;27.80;25.85;;;;;;;25.56;100.00;101411.22;4992946;28;20144;-87
2022/06/03 07:23:32;;;;;;;27.23;25.52;;;;;;;25.69;100.00;101403.47;5000687;28;20050;-89
2022/06/03 07:26:06;;;;;;;28.05;26.05;;;;;;;25.81;100.00;101399.28;4987524;28;20061;-90
2022/06/03 07:28:43;;;;;;;28.52;26.38;;;;;;;25.79;100.00;101406.06;4989606;28;20042;-88
2022/06/03 07:31:24;;;;;;;27.30;25.58;;;;;;;25.88;100.00;101406.25;4996236;28;20407;-89
2022/06/03 07:33:58;;;;;;;27.80;26.00;;;;;;;26.16;100.00;101413.47;4996154;28;20046;-86
2022/06/03 07:36:41;;;;;;;29.40;27.30;;;;;;;26.27;100.00;101414.16;4990298;28;20059;-87
2022/06/03 07:39:24;;;;;;;;;;;;;;;26.44;100.00;101408.16;4999260;28;20047;-87
2022/06/03 07:41:55;;;;;;;27.25;25.15;;;;;;;26.15;100.00;101409.16;4992135;28;19933;-87
2022/06/03 07:44:30;;;;;;;27.02;24.70;;;;;;;26.54;100.00;101407.22;5000959;28;20481;-87
2022/06/03 07:47:05;;;;;;;26.83;25.13;;;;;;;26.57;100.00;101423.81;4992944;28;20042;-88
2022/06/03 07:49:39;;;;;;;26.52;24.63;;;;;;;26.46;100.00;101431.28;4994721;28;20054;-87
2022/06/03 07:52:19;;;;;;;26.75;24.90;;;;;;;26.23;100.00;101427.56;4999158;28;20050;-88
2022/06/03 07:54:56;;;;;;;26.75;24.55;;;;;;;26.13;100.00;101435.03;4997478;28;20062;-88
2022/06/03 07:57:31;;;;;;;28.67;26.88;;;;;;;26.78;100.00;101432.47;4999811;28;20105;-88
2022/06/03 08:00:01;;;;;;;29.17;27.27;;;;;;;27.01;100.00;101424.44;4991527;28;20100;-90
2022/06/03 08:02:28;;;;;;;28.30;26.05;;;;;;;27.08;100.00;101422.13;4998128;28;20046;-87
2022/06/03 08:05:07;;;;;;;28.20;26.25;;;;;;;27.23;100.00;101424.59;4998574;28;20054;-88
2022/06/03 08:13:16;;;;;;;28.55;26.00;;;;;;;27.14;100.00;101421.78;4994298;28;20057;-88
2022/06/03 08:15:53;;;;;;;28.95;26.92;;;;;;;27.39;100.00;101430.59;4985411;28;20061;-89
2022/06/03 08:18:22;;;;;;;28.85;26.70;;;;;;;27.40;100.00;101432.19;4986970;28;20082;-88
2022/06/03 08:20:53;;;;;;;30.05;27.73;;;;;;;27.48;100.00;101430.69;4996209;28;20039;-91
2022/06/03 08:23:21;;;;;;;29.80;27.83;;;;;;;26.91;100.00;101428.16;5003920;28;20046;-88
2022/06/03 08:25:52;;;;;;;29.02;26.70;;;;;;;27.13;100.00;101427.47;4986838;28;20047;-88
2022/06/03 08:28:25;;;;;;;28.13;26.20;;;;;;;27.52;100.00;101420.78;4997199;28;20054;-90
2022/06/03 08:30:58;;;;;;;27.60;25.48;;;;;;;28.15;100.00;101424.69;4999194;28;20039;-90
2022/06/03 08:33:31;;;;;;;27.52;25.45;;;;;;;27.28;100.00;101410.88;5005298;28;20104;-88
2022/06/03 08:36:05;;;;;;;29.27;27.23;;;;;;;27.13;100.00;101408.41;5001807;28;20081;-91
2022/06/03 08:38:37;;;;;;;27.92;25.77;;;;;;;27.69;100.00;101412.81;4992983;28;20050;-88
2022/06/03 08:41:15;;;;;;;25.95;24.15;;;;;;;27.90;100.00;101407.75;4999167;28;20054;-89
2022/06/03 08:44:08;;;;;;;29.25;27.08;;;;;;;27.56;100.00;101405.41;4999842;28;20053;-87
2022/06/03 08:46:43;;;;;;;28.08;25.95;;;;;;;27.88;100.00;101393.59;5000201;28;20046;-89
2022/06/03 08:49:23;;;;;;;28.73;26.40;;;;;;;27.83;100.00;101399.16;4998113;28;20062;-89
2022/06/03 08:51:53;;;;;;;27.67;25.52;;;;;;;27.94;100.00;101408.75;4991073;28;20108;-88
2022/06/03 08:54:28;;;;;;;26.77;24.73;;;;;;;28.12;100.00;101406.19;4995785;28;20430;-92
2022/06/03 08:57:01;;;;;;;27.25;25.40;;;;;;;27.73;100.00;101404.81;4998592;28;20046;-88
2022/06/03 08:59:39;;;;;;;29.75;27.80;;;;;;;27.96;100.00;101401.06;4991198;28;20051;-89
2022/06/03 09:02:13;;;;;;;33.55;31.25;;;;;;;27.96;100.00;101405.69;4999823;28;20054;-89
2022/06/03 09:04:50;;;;;;;35.30;32.72;;;;;;;28.28;100.00;101405.50;4997259;28;20046;-92
2022/06/03 09:07:27;;;;;;;32.75;30.50;;;;;;;27.66;100.00;101404.38;4993998;28;20069;-91
2022/06/03 09:10:10;;;;;;;31.77;29.25;;;;;;;27.63;100.00;101412.09;4996615;28;20485;-89
2022/06/03 09:12:53;;;;;;;28.52;26.60;;;;;;;27.18;100.00;101405.63;4984566;28;20459;-89
2022/06/03 09:15:24;;;;;;;;;;;;;;;28.03;100.00;101406.09;4996039;28;20145;-91
2022/06/03 09:18:04;;;;;;;30.23;28.10;;;;;;;28.45;100.00;101402.16;4998640;28;19925;-89
2022/06/03 09:20:37;;;;;;;30.83;28.60;;;;;;;28.34;100.00;101402.66;4996407;28;20550;-90
2022/06/03 09:23:08;;;;;;;29.30;27.30;;;;;;;28.39;100.00;101399.81;4996498;28;20118;-90
2022/06/03 09:25:38;;;;;;;30.38;28.23;;;;;;;28.99;100.00;101397.50;4994167;28;20046;-88
2022/06/03 09:28:08;;;;;;;31.38;29.38;;;;;;;29.05;100.00;101391.91;4990258;28;20391;-87
2022/06/03 09:30:38;;;;;;;32.10;29.85;;;;;;;28.71;100.00;101393.31;4990790;28;20054;-89
2022/06/03 09:33:15;;;;;;;31.52;29.20;;;;;;;28.86;100.00;101386.63;4990046;28;20077;-86
2022/06/03 09:35:48;;;;;;;28.00;25.58;;;;;;;29.00;100.00;101393.63;4991729;28;20050;-91
2022/06/03 09:38:23;;;;;;;27.58;25.33;;;;;;;28.65;100.00;101392.63;4999094;28;20065;-89
2022/06/03 09:40:53;;;;;;;27.35;25.33;;;;;;;28.60;100.00;101383.78;4996433;28;20176;-88
2022/06/03 09:43:25;;;;;;;28.13;25.92;;;;;;;28.66;100.00;101371.59;4997643;28;20050;-89
2022/06/03 09:46:05;;;;;;;27.42;25.00;;;;;;;28.51;100.00;101368.13;4987895;28;20535;-90
2022/06/03 09:48:37;;;;;;;28.70;26.23;;;;;;;29.35;100.00;101365.63;4994089;28;20470;-90
2022/06/03 09:51:19;;;;;;;27.73;25.67;;;;;;;29.42;100.00;101382.41;4987745;28;20042;-91
2022/06/03 09:53:46;;;;;;;;;;;;;;;29.02;100.00;101381.59;4982925;28;20403;-90
2022/06/03 09:56:33;;;;;;;28.73;26.27;;;;;;;29.26;100.00;101378.47;4990145;28;19921;-88
2022/06/03 09:59:03;;;;;;;28.23;26.50;;;;;;;28.84;100.00;101381.50;4997860;28;20129;-91
2022/06/03 10:01:31;;;;;;;27.70;25.88;;;;;;;29.78;100.00;101384.13;4994545;28;20059;-88
2022/06/03 10:04:02;;;;;;;27.38;25.45;;;;;;;30.17;100.00;101380.47;4998713;28;20051;-89
2022/06/03 10:06:46;;;;;;;28.20;25.83;;;;;;;29.31;100.00;101390.09;4990718;28;20490;-89
2022/06/03 10:15:37;;;;;;;27.23;25.30;;;;;;;30.10;100.00;101372.69;4994702;28;20127;-88
2022/06/03 10:17:33;;;;;;;27.48;25.42;;;;;;;30.82;100.00;101375.88;5002520;28;20046;-91
2022/06/03 10:20:06;;;;;;;28.13;26.02;;;;;;;28.76;100.00;101402.19;4995597;28;20073;-90
2022/06/03 10:22:35;;;;;;;32.25;29.60;;;;;;;28.35;100.00;101407.81;5001452;28;20054;-90
2022/06/03 10:25:05;;;;;;;31.27;29.08;;;;;;;29.18;100.00;101396.47;4989696;28;20131;-91
2022/06/03 10:27:32;;;;;;;29.40;27.30;;;;;;;30.02;100.00;101397.38;4990185;28;20058;-87
2022/06/03 10:30:00;;;;;;;29.92;27.48;;;;;;;29.50;100.00;101398.03;4994289;28;20046;-89
2022/06/03 10:32:27;;;;;;;30.88;28.67;;;;;;;28.38;100.00;101409.13;4987479;28;20049;-88
2022/06/03 10:35:13;;;;;;;29.85;27.45;;;;;;;29.54;100.00;101401.75;4983867;28;20135;-90
2022/06/03 10:37:48;;;;;;;29.95;27.70;;;;;;;29.60;100.00;101399.69;4980252;28;20074;-87
2022/06/03 10:40:19;;;;;;;28.73;26.08;;;;;;;30.07;100.00;101391.72;4989599;28;20046;-90
2022/06/03 10:42:49;;;;;;;29.23;27.00;;;;;;;30.33;100.00;101391.75;4999277;28;20054;-91
2022/06/03 10:45:16;;;;;;;27.85;25.88;;;;;;;30.16;100.00;101395.25;4989928;28;20064;-90
2022/06/03 10:47:45;;;;;;;27.85;25.63;;;;;;;28.86;100.00;101405.78;4996673;28;20394;-90
2022/06/03 10:50:26;;;;;;;27.95;26.02;;;;;;;28.56;100.00;101399.94;4989871;28;20046;-88
2022/06/03 11:01:31;;;;;;;31.25;28.50;;;;;;;29.89;100.00;101399.09;4990437;28;20062;-88
2022/06/03 11:04:06;;;;;;;29.08;26.98;;;;;;;30.31;100.00;101397.53;4990191;28;20042;-90
2022/06/03 11:06:40;;;;;;;30.50;27.83;;;;;;;30.02;100.00;101400.91;4992463;28;20057;-90
2022/06/03 11:09:11;;;;;;;28.58;26.77;;;;;;;29.87;100.00;101398.66;4994345;28;20058;-88
2022/06/03 11:11:42;;;;;;;31.08;28.98;;;;;;;30.56;100.00;101395.09;4995262;28;20081;-88
2022/06/03 11:14:46;;;;;;;29.10;26.98;;;;;;;30.51;93.35;101390.59;4998796;28;20117;-88
2022/06/03 11:17:18;;;;;;;29.20;26.85;;;;;;;30.42;88.20;101375.31;4997508;28;20047;-88
2022/06/03 11:19:52;;;;;;;34.92;27.67;;;;;;;30.25;96.63;101384.34;4990547;28;20129;-88
2022/06/03 11:22:44;;;;;;;28.52;26.63;;;;;;;30.26;95.81;101380.47;4999955;28;20046;-89
2022/06/03 11:25:22;;;;;;;30.55;27.90;;;;;;;30.23;84.89;101384.69;5001550;28;20049;-92
2022/06/03 11:27:53;;;;;;;28.42;25.73;;;;;;;30.88;88.88;101387.50;4998881;28;20050;-89
2022/06/03 11:30:28;;;;;;;28.23;26.00;;;;;;;30.34;89.80;101376.91;4998822;28;20061;-88
2022/06/03 11:33:04;;;;;;;27.98;26.08;;;;;;;30.28;90.76;101387.22;4995641;28;20058;-87
2022/06/03 11:35:38;;;;;;;26.90;24.90;;;;;;;30.99;90.61;101381.31;4998687;28;20081;-90
2022/06/03 11:38:14;;;;;;;31.35;28.40;;;;;;;30.49;88.54;101383.84;5000482;28;20086;-88
2022/06/03 11:40:51;;;;;;;30.52;28.35;;;;;;;30.31;94.39;101381.09;5008901;28;20060;-89
2022/06/03 11:43:25;;;;;;;29.13;27.20;;;;;;;29.88;92.02;101389.28;5020639;28;20057;-91
2022/06/03 11:45:58;;;;;;;29.40;27.45;;;;;;;30.30;95.22;101381.44;5020231;28;20489;-91
2022/06/03 11:48:35;;;;;;;30.25;28.23;;;;;;;30.47;94.97;101378.69;5010131;28;20055;-89
2022/06/03 11:51:07;;;;;;;29.77;27.48;;;;;;;29.79;90.48;101383.81;5015742;28;20046;-91
2022/06/03 11:53:47;;;;;;;28.27;26.27;;;;;;;30.67;91.69;101387.34;5021723;28;20069;-90
2022/06/03 11:56:23;;;;;;;29.27;26.85;;;;;;;30.69;91.90;101390.56;5017780;28;20076;-88
2022/06/03 11:59:03;;;;;;;28.80;26.65;;;;;;;30.29;96.54;101382.59;5019141;28;20046;-89
2022/06/03 12:01:41;;;;;;;28.52;26.17;;;;;;;30.64;91.29;101385.25;5005407;28;20137;-89
2022/06/03 12:04:22;;;;;;;30.35;28.30;;;;;;;30.56;86.93;101381.38;4995935;28;20141;-88
2022/06/03 12:07:01;;;;;;;32.08;29.67;;;;;;;30.20;90.65;101395.41;4999276;28;20050;-91
2022/06/03 12:10:03;;;;;;;35.45;29.80;;;;;;;30.33;99.81;101381.59;4996851;28;20038;-92
2022/06/03 12:16:01;;;;;;;30.33;28.20;;;;;;;31.13;90.44;101374.81;5001866;28;20373;-89
2022/06/03 12:18:59;;;;;;;28.45;26.33;;;;;;;30.24;90.62;101367.09;4977156;28;20051;-90
2022/06/03 12:22:03;;;;;;;28.50;26.33;;;;;;;31.07;86.16;101360.47;4988499;28;20138;-86
2022/06/03 12:24:46;;;;;;;29.23;27.13;;;;;;;30.65;94.99;101356.72;4975493;28;20052;-87
2022/06/03 12:27:23;;;;;;;29.77;27.52;;;;;;;30.56;92.24;101345.75;4993469;28;20379;-90
2022/06/03 12:30:09;;;;;;;28.65;26.60;;;;;;;30.24;93.12;101352.59;4997206;28;20066;-87
2022/06/03 12:32:39;;;;;;;28.17;25.88;;;;;;;30.67;94.62;101340.75;4991699;28;20050;-89
2022/06/03 12:35:47;;;;;;;30.15;28.13;;;;;;;30.34;89.10;101347.56;4990271;28;20133;-88
2022/06/03 12:38:44;;;;;;;30.05;27.92;;;;;;;29.63;92.22;101342.41;4975780;28;20137;-90
2022/06/03 12:41:54;;;;;;;27.15;25.15;;;;;;;31.19;81.15;101343.31;4993071;28;20061;-89
2022/06/03 12:44:48;;;;;;;28.10;25.80;;;;;;;31.15;79.61;101334.94;4980837;28;20069;-91
2022/06/03 12:47:49;;;;;;;28.00;25.80;;;;;;;30.63;82.49;101337.88;4998680;28;20042;-88
2022/06/03 12:50:27;;;;;;;28.60;26.27;;;;;;;30.23;84.71;101334.53;4984653;28;20054;-90
2022/06/03 12:53:03;;;;;;;29.73;27.42;;;;;;;30.76;84.04;101344.25;4994719;28;20057;-89
2022/06/03 12:55:33;;;;;;;29.33;26.80;;;;;;;30.52;84.12;101336.59;4991577;28;20146;-89
2022/06/03 12:58:04;;;;;;;29.98;27.48;;;;;;;30.75;82.78;101337.97;5000477;28;20054;-90
2022/06/03 13:00:36;;;;;;;28.63;26.40;;;;;;;31.22;80.61;101337.16;4987447;28;20086;-88